createdAt,value
2023-11-12T00:03:19.976Z,97.21
2023-11-12T00:08:37.625Z,97.43
2023-11-12T00:13:27.704Z,97.38
2023-11-12T00:18:15.152Z,97.65
2023-11-12T00:23:04.034Z,97.62
2023-11-12T00:27:54.385Z,97.92
2023-11-12T00:32:41.890Z,97.75
2023-11-12T00:37:29.128Z,97.93
2023-11-12T00:42:16.192Z,97.83
2023-11-12T00:47:05.999Z,97.77
2023-11-12T00:51:54.004Z,98.10
2023-11-12T00:56:41.119Z,97.70
2023-11-12T01:01:28.218Z,98.00
2023-11-12T01:06:19.090Z,97.98
2023-11-12T01:11:09.062Z,98.20
2023-11-12T01:15:56.387Z,98.12
2023-11-12T01:20:44.450Z,97.99
2023-11-12T01:25:35.081Z,98.48
2023-11-12T01:30:52.208Z,98.21
2023-11-12T01:35:41.158Z,98.14
2023-11-12T01:40:28.422Z,98.28
2023-11-12T01:45:18.301Z,98.36
2023-11-12T01:50:08.003Z,98.60
2023-11-12T01:54:56.887Z,98.38
2023-11-12T01:59:44.119Z,98.64
2023-11-12T02:04:33.900Z,98.59
2023-11-12T02:09:21.149Z,98.50
2023-11-12T02:14:08.778Z,98.78
2023-11-12T02:18:56.016Z,98.79
2023-11-12T02:23:45.800Z,98.96
2023-11-12T02:28:32.833Z,98.89
2023-11-12T02:33:20.075Z,98.88
2023-11-12T02:38:07.294Z,99.13
2023-11-12T02:42:57.017Z,99.04
2023-11-12T02:47:44.237Z,99.12
2023-11-12T02:52:31.330Z,99.25
2023-11-12T02:57:18.527Z,99.13
2023-11-12T03:02:08.368Z,99.34
2023-11-12T03:06:55.571Z,99.30
2023-11-12T03:11:42.726Z,99.52
2023-11-12T03:16:29.792Z,99.49
2023-11-12T03:21:19.667Z,99.38
2023-11-12T03:26:06.940Z,99.52
2023-11-12T03:30:54.182Z,99.73
2023-11-12T03:35:41.623Z,99.69
2023-11-12T03:40:31.381Z,99.97
2023-11-12T03:45:18.561Z,99.89
2023-11-12T03:50:06.641Z,100.00
2023-11-12T03:54:53.800Z,99.85
2023-11-12T03:59:43.544Z,99.85
2023-11-12T04:04:30.747Z,99.89
2023-11-12T04:09:18.043Z,99.67
2023-11-12T04:14:05.582Z,99.61
2023-11-12T04:18:56.216Z,99.52
2023-11-12T04:23:43.729Z,99.56
2023-11-12T04:28:30.913Z,99.59
2023-11-12T04:33:18.606Z,99.40
2023-11-12T04:38:08.424Z,99.16
2023-11-12T04:42:55.522Z,99.39
2023-11-12T04:47:42.694Z,99.35
2023-11-12T04:52:29.822Z,99.29
2023-11-12T04:57:19.607Z,99.46
2023-11-12T05:02:06.887Z,99.58
2023-11-12T05:06:54.146Z,99.72
2023-11-12T05:11:41.302Z,99.59
2023-11-12T05:16:31.178Z,99.46
2023-11-12T05:21:18.348Z,99.51
2023-11-12T05:26:05.615Z,99.88
2023-11-12T05:30:52.934Z,100.00
2023-11-12T05:35:42.678Z,100.00
2023-11-12T05:40:29.740Z,100.00
2023-11-12T05:45:18.422Z,100.00
2023-11-12T05:50:07.016Z,100.00
2023-11-12T05:55:12.794Z,100.00
2023-11-12T06:00:00.345Z,100.00
2023-11-12T06:04:49.365Z,100.00
2023-11-12T06:09:38.227Z,100.00
2023-11-12T06:14:28.334Z,100.00
2023-11-12T06:19:15.804Z,100.00
2023-11-12T06:24:03.450Z,100.00
2023-11-12T06:28:58.371Z,100.00
2023-11-12T06:33:48.288Z,100.00
2023-11-12T06:38:35.471Z,100.00
2023-11-12T06:43:22.609Z,100.00
2023-11-12T06:48:09.764Z,100.00
2023-11-12T06:53:00.990Z,100.00
2023-11-12T06:57:48.284Z,100.00
2023-11-12T07:02:35.549Z,100.00
2023-11-12T07:07:22.787Z,100.00
2023-11-12T07:12:12.854Z,100.00
2023-11-12T07:17:02.635Z,100.00
2023-11-12T07:21:49.773Z,100.00
2023-11-12T07:26:45.912Z,100.00
2023-11-12T07:31:39.018Z,100.00
2023-11-12T07:36:26.444Z,100.00
2023-11-12T07:41:13.561Z,100.00
2023-11-12T07:46:01.018Z,100.00
2023-11-12T07:50:50.714Z,100.00
2023-11-12T07:55:37.873Z,100.00
2023-11-12T08:00:25.212Z,100.00
2023-11-12T08:05:12.405Z,100.00
2023-11-12T08:10:02.276Z,100.00
2023-11-12T08:14:49.449Z,100.00
2023-11-12T08:19:36.820Z,100.00
2023-11-12T08:24:24.064Z,100.00
2023-11-12T08:29:13.914Z,100.00
2023-11-12T08:34:01.039Z,100.00
2023-11-12T08:38:48.164Z,100.00
2023-11-12T08:43:35.421Z,100.00
2023-11-12T08:48:25.216Z,100.00
2023-11-12T09:20:09.767Z,100.00
2023-11-12T09:25:09.083Z,100.00
2023-11-12T09:30:01.061Z,100.00
2023-11-12T09:34:48.385Z,100.00
2023-11-12T09:39:40.509Z,100.00
2023-11-12T09:45:03.505Z,100.00
2023-11-12T09:49:48.300Z,100.00
2023-11-12T09:54:41.640Z,100.00
2023-11-12T09:59:31.961Z,100.00
2023-11-12T10:04:22.223Z,100.00
2023-11-12T10:09:10.184Z,100.00
2023-11-12T10:14:03.664Z,100.00
2023-11-12T10:18:52.599Z,100.00
2023-11-12T10:23:41.812Z,100.00
2023-11-12T10:28:34.939Z,100.00
2023-11-12T10:33:30.403Z,100.00
2023-11-12T10:43:57.814Z,100.00
2023-11-12T10:48:49.617Z,100.00
2023-11-12T10:53:38.901Z,100.00
2023-11-12T10:58:32.517Z,100.00
2023-11-12T11:03:20.020Z,100.00
2023-11-12T11:08:09.865Z,100.00
2023-11-12T11:12:57.228Z,100.00
2023-11-12T11:17:44.474Z,100.00
2023-11-12T11:22:32.455Z,100.00
2023-11-12T11:27:22.902Z,100.00
2023-11-12T11:32:13.856Z,100.00
2023-11-12T11:37:01.116Z,100.00
2023-11-12T11:42:12.813Z,100.00
2023-11-12T11:47:10.560Z,100.00
2023-11-12T11:51:57.802Z,100.00
2023-11-12T11:56:45.284Z,100.00
2023-11-12T12:01:42.578Z,100.00
2023-11-12T12:06:35.018Z,100.00
2023-11-12T12:11:22.203Z,100.00
2023-11-12T12:16:09.609Z,100.00
2023-11-12T12:20:57.249Z,100.00
2023-11-12T12:25:55.390Z,100.00
2023-11-12T12:30:52.089Z,100.00
2023-11-12T12:35:39.896Z,100.00
2023-11-12T12:40:27.631Z,100.00
2023-11-12T12:45:18.252Z,100.00
2023-11-12T12:50:25.357Z,100.00
2023-11-12T12:55:16.300Z,100.00
2023-11-12T13:00:03.975Z,100.00
2023-11-12T13:04:54.655Z,100.00
2023-11-12T13:10:00.589Z,100.00
2023-11-12T13:14:51.769Z,100.00
2023-11-12T13:19:39.187Z,100.00
2023-11-12T13:35:00.660Z,100.00
2023-11-12T13:39:51.165Z,100.00
2023-11-12T13:44:39.583Z,100.00
2023-11-12T14:42:29.301Z,100.00
2023-11-12T14:47:16.623Z,100.00
2023-11-12T14:52:09.347Z,100.00
2023-11-12T14:57:06.263Z,100.00
2023-11-12T15:01:56.096Z,100.00
2023-11-12T15:06:43.342Z,100.00
2023-11-12T15:11:30.713Z,100.00
2023-11-12T15:16:21.720Z,100.00
2023-11-12T15:21:11.632Z,100.00
2023-11-12T15:25:59.156Z,100.00
2023-11-12T15:30:46.446Z,100.00
2023-11-12T15:35:34.234Z,100.00
2023-11-12T15:40:24.609Z,100.00
2023-11-12T15:45:13.532Z,100.00
2023-11-12T15:50:00.881Z,100.00
2023-11-12T15:54:48.284Z,100.00
2023-11-12T15:59:41.157Z,100.00
2023-11-12T16:04:28.620Z,100.00
2023-11-12T16:09:15.959Z,100.00
2023-11-12T16:14:05.537Z,100.00
2023-11-12T16:19:03.861Z,100.00
2023-11-12T16:23:51.156Z,100.00
2023-11-12T16:28:39.348Z,100.00
2023-11-12T16:33:28.936Z,100.00
2023-11-12T16:38:20.257Z,100.00
2023-11-12T16:43:07.715Z,100.00
2023-11-12T16:47:54.950Z,100.00
2023-11-12T16:52:45.845Z,100.00
2023-11-12T16:57:35.759Z,100.00
2023-11-12T17:02:23.190Z,100.00
2023-11-12T17:07:10.422Z,100.00
2023-11-12T17:11:57.668Z,100.00
2023-11-12T17:16:50.737Z,100.00
2023-11-12T17:21:39.924Z,100.00
2023-11-12T17:26:27.130Z,100.00
2023-11-12T17:31:14.478Z,100.00
2023-11-12T17:36:04.774Z,100.00
2023-11-12T17:40:52.034Z,100.00
2023-11-12T17:45:39.248Z,100.00
2023-11-12T17:50:28.962Z,100.00
2023-11-12T17:55:28.640Z,100.00
2023-11-12T18:00:19.773Z,100.00
2023-11-12T18:05:11.882Z,100.00
2023-11-12T18:09:59.797Z,100.00
2023-11-12T18:14:54.851Z,100.00
2023-11-12T18:19:42.195Z,100.00
2023-11-12T18:24:31.820Z,100.00
2023-11-12T18:29:19.146Z,100.00
2023-11-12T18:34:09.405Z,100.00
2023-11-12T18:38:59.783Z,100.00
2023-11-12T18:43:47.018Z,100.00
2023-11-12T18:48:34.619Z,100.00
2023-11-12T18:53:24.861Z,100.00
2023-11-12T18:58:12.218Z,100.00
2023-11-12T19:02:59.393Z,100.00
2023-11-12T19:07:47.064Z,100.00
2023-11-12T19:12:37.751Z,100.00
2023-11-12T19:17:25.314Z,100.00
2023-11-12T19:22:12.789Z,100.00
2023-11-12T19:27:00.127Z,100.00
2023-11-12T19:31:49.964Z,100.00
2023-11-12T19:36:39.766Z,100.00
2023-11-12T19:41:27.091Z,100.00
2023-11-12T19:46:14.451Z,100.00
2023-11-12T19:51:06.163Z,100.00
2023-11-12T19:55:59.010Z,100.00
2023-11-12T20:00:46.326Z,100.00
2023-11-12T20:05:33.634Z,100.00
2023-11-12T20:10:26.619Z,100.00
2023-11-12T20:15:16.546Z,100.00
2023-11-12T20:20:04.575Z,100.00
2023-11-12T20:24:51.914Z,100.00
2023-11-12T20:29:41.730Z,100.00
2023-11-12T20:34:28.912Z,100.00
2023-11-12T20:39:16.245Z,100.00
2023-11-12T20:44:03.474Z,100.00
2023-11-12T20:49:23.710Z,100.00
2023-11-12T20:54:18.678Z,100.00
2023-11-12T20:59:05.846Z,100.00
2023-11-12T21:03:55.803Z,100.00
2023-11-12T21:08:43.346Z,100.00
2023-11-12T21:13:30.578Z,100.00
2023-11-12T21:18:17.833Z,100.00
2023-11-12T21:23:07.804Z,100.00
2023-11-12T21:28:02.964Z,100.00
2023-11-12T21:33:04.442Z,100.00
2023-11-12T21:37:59.201Z,100.00
2023-11-12T21:42:53.250Z,100.00
2023-11-12T21:47:41.408Z,100.00
2023-11-12T21:52:44.361Z,100.00
2023-11-12T21:57:32.273Z,100.00
2023-11-12T22:02:34.256Z,100.00
2023-11-12T22:07:24.918Z,100.00
2023-11-12T22:12:12.843Z,100.00
2023-11-12T22:17:00.063Z,100.00
2023-11-12T22:21:55.933Z,100.00
2023-11-12T22:27:03.705Z,100.00
2023-11-12T22:32:05.497Z,100.00
2023-11-12T22:37:00.304Z,100.00
2023-11-12T22:41:49.560Z,100.00
2023-11-12T22:46:37.058Z,100.00
2023-11-12T22:51:24.701Z,100.00
2023-11-12T22:56:14.647Z,100.00
2023-11-12T23:01:01.951Z,100.00
2023-11-12T23:05:50.039Z,100.00
2023-11-12T23:10:38.649Z,100.00
2023-11-12T23:15:28.488Z,100.00
2023-11-12T23:20:16.130Z,100.00
2023-11-12T23:25:03.526Z,100.00
2023-11-12T23:29:50.763Z,100.00
2023-11-12T23:34:40.588Z,100.00
2023-11-12T23:39:27.929Z,100.00
2023-11-12T23:44:15.159Z,100.00
2023-11-12T23:49:02.473Z,100.00
2023-11-12T23:53:52.661Z,100.00
2023-11-12T23:58:39.989Z,100.00
